createdAt,value
2023-02-25T00:01:22.661Z,100.00
2023-02-25T00:03:53.082Z,100.00
2023-02-25T00:06:23.419Z,100.00
2023-02-25T00:08:53.112Z,100.00
2023-02-25T00:11:23.114Z,100.00
2023-02-25T00:13:52.709Z,100.00
2023-02-25T00:16:22.660Z,100.00
2023-02-25T00:18:55.279Z,100.00
2023-02-25T00:21:23.575Z,100.00
2023-02-25T00:23:53.751Z,100.00
2023-02-25T00:26:23.363Z,100.00
2023-02-25T00:28:53.244Z,100.00
2023-02-25T00:31:24.041Z,100.00
2023-02-25T00:33:53.419Z,100.00
2023-02-25T00:36:24.556Z,100.00
2023-02-25T00:38:55.336Z,100.00
2023-02-25T00:41:25.433Z,100.00
2023-02-25T00:43:56.376Z,100.00
2023-02-25T00:46:26.291Z,100.00
2023-02-25T00:48:54.661Z,100.00
2023-02-25T00:51:24.921Z,100.00
2023-02-25T00:53:55.865Z,100.00
2023-02-25T00:56:26.184Z,100.00
2023-02-25T00:58:56.213Z,100.00
2023-02-25T01:01:26.459Z,100.00
2023-02-25T01:03:56.724Z,100.00
2023-02-25T01:06:26.008Z,100.00
2023-02-25T01:08:55.080Z,100.00
2023-02-25T01:11:27.213Z,100.00
2023-02-25T01:13:58.109Z,100.00
2023-02-25T01:16:29.563Z,100.00
2023-02-25T01:18:59.651Z,100.00
2023-02-25T01:21:32.706Z,100.00
2023-02-25T01:24:02.805Z,100.00
2023-02-25T01:26:33.434Z,100.00
2023-02-25T01:29:03.230Z,100.00
2023-02-25T01:31:31.776Z,100.00
2023-02-25T01:34:00.857Z,100.00
2023-02-25T01:36:30.263Z,99.89
2023-02-25T01:38:58.639Z,100.00
2023-02-25T01:41:27.993Z,100.00
2023-02-25T01:44:10.894Z,100.00
2023-02-25T01:46:40.431Z,100.00
2023-02-25T01:49:12.506Z,100.00
2023-02-25T01:51:41.315Z,100.00
2023-02-25T01:54:12.251Z,99.82
2023-02-25T01:56:43.567Z,99.62
2023-02-25T01:59:14.203Z,99.31
2023-02-25T02:01:42.508Z,98.39
2023-02-25T02:04:13.237Z,97.31
2023-02-25T02:06:42.969Z,97.18
2023-02-25T02:09:14.521Z,96.46
2023-02-25T02:11:43.652Z,95.45
2023-02-25T02:14:17.116Z,95.87
2023-02-25T02:17:07.374Z,94.65
2023-02-25T02:19:57.091Z,93.66
2023-02-25T02:22:32.000Z,92.33
2023-02-25T02:25:43.092Z,91.53
2023-02-25T02:28:34.827Z,91.68
2023-02-25T02:31:21.971Z,91.45
2023-02-25T02:33:56.203Z,91.68
2023-02-25T02:36:34.266Z,91.19
2023-02-25T02:39:09.726Z,91.02
2023-02-25T02:41:42.416Z,90.59
2023-02-25T02:44:18.334Z,90.29
2023-02-25T02:46:52.634Z,90.28
2023-02-25T02:49:25.438Z,90.48
2023-02-25T02:51:58.855Z,90.34
2023-02-25T02:54:32.578Z,90.29
2023-02-25T02:57:02.540Z,90.11
2023-02-25T02:59:36.011Z,90.54
2023-02-25T03:02:12.100Z,90.86
2023-02-25T03:04:43.886Z,90.32
2023-02-25T03:07:13.771Z,90.18
2023-02-25T03:09:46.541Z,90.11
2023-02-25T03:12:14.691Z,90.26
2023-02-25T03:14:43.064Z,90.29
2023-02-25T03:17:16.859Z,90.22
2023-02-25T03:19:49.065Z,90.39
2023-02-25T03:22:20.924Z,91.30
2023-02-25T03:24:54.917Z,91.33
2023-02-25T03:27:29.801Z,91.43
2023-02-25T03:30:06.822Z,91.42
2023-02-25T03:32:41.075Z,91.14
2023-02-25T03:35:11.837Z,91.35
2023-02-25T03:37:43.273Z,91.52
2023-02-25T03:40:15.268Z,91.89
2023-02-25T03:42:46.799Z,92.14
2023-02-25T03:45:17.048Z,92.19
2023-02-25T03:47:46.850Z,92.35
2023-02-25T03:50:20.334Z,92.98
2023-02-25T03:52:48.610Z,93.21
2023-02-25T03:55:18.688Z,93.09
2023-02-25T03:57:50.051Z,92.98
2023-02-25T04:00:23.818Z,92.71
2023-02-25T04:02:53.696Z,92.57
2023-02-25T04:05:27.812Z,92.46
2023-02-25T04:07:56.630Z,92.73
2023-02-25T04:10:25.266Z,93.23
2023-02-25T04:12:54.005Z,92.93
2023-02-25T04:15:22.608Z,92.54
2023-02-25T04:17:52.141Z,92.36
2023-02-25T04:20:20.948Z,92.41
2023-02-25T04:22:49.216Z,92.33
2023-02-25T04:25:17.334Z,92.30
2023-02-25T04:27:45.412Z,92.13
2023-02-25T04:30:14.717Z,91.94
2023-02-25T04:32:42.967Z,91.82
2023-02-25T04:35:13.523Z,92.19
2023-02-25T04:37:42.400Z,91.94
2023-02-25T04:40:16.009Z,91.99
2023-02-25T04:42:44.608Z,91.43
2023-02-25T04:45:13.502Z,91.30
2023-02-25T04:47:41.902Z,91.41
2023-02-25T04:50:13.789Z,90.94
2023-02-25T04:52:41.925Z,90.30
2023-02-25T04:55:10.984Z,90.21
2023-02-25T04:57:42.478Z,90.82
2023-02-25T05:00:19.263Z,90.73
2023-02-25T05:02:48.962Z,90.03
2023-02-25T05:05:19.621Z,90.25
2023-02-25T05:07:47.962Z,90.68
2023-02-25T05:10:16.380Z,90.63
2023-02-25T05:12:44.478Z,89.98
2023-02-25T05:15:13.305Z,89.46
2023-02-25T05:17:41.395Z,89.47
2023-02-25T05:20:13.217Z,89.32
2023-02-25T05:22:43.257Z,88.94
2023-02-25T05:25:11.893Z,88.12
2023-02-25T05:27:40.202Z,87.78
2023-02-25T05:30:09.913Z,87.24
2023-02-25T05:32:39.055Z,86.87
2023-02-25T05:35:09.948Z,86.47
2023-02-25T05:37:38.773Z,86.74
2023-02-25T05:40:09.810Z,85.95
2023-02-25T05:42:38.707Z,85.20
2023-02-25T05:45:08.480Z,83.74
2023-02-25T05:47:37.324Z,82.04
2023-02-25T05:50:06.282Z,81.81
2023-02-25T05:52:34.598Z,81.76
2023-02-25T05:55:03.291Z,83.12
2023-02-25T05:57:32.777Z,83.26
2023-02-25T06:00:01.674Z,86.78
2023-02-25T06:02:29.819Z,86.24
2023-02-25T06:04:58.169Z,87.33
2023-02-25T06:07:26.354Z,88.35
2023-02-25T06:09:55.210Z,88.19
2023-02-25T06:12:23.465Z,84.76
2023-02-25T06:14:53.345Z,85.91
2023-02-25T06:17:22.219Z,83.53
2023-02-25T06:19:51.390Z,81.51
2023-02-25T06:22:21.257Z,80.40
2023-02-25T06:24:49.917Z,78.95
2023-02-25T06:27:18.872Z,78.12
2023-02-25T06:29:49.365Z,81.20
2023-02-25T06:32:19.668Z,81.57
2023-02-25T06:34:48.014Z,80.28
2023-02-25T06:37:16.516Z,79.24
2023-02-25T06:39:44.625Z,78.15
2023-02-25T06:42:12.725Z,78.22
2023-02-25T06:44:40.848Z,77.87
2023-02-25T06:47:09.349Z,77.56
2023-02-25T06:49:38.954Z,77.14
2023-02-25T06:52:07.437Z,77.05
2023-02-25T06:54:35.707Z,76.83
2023-02-25T06:57:03.889Z,77.20
2023-02-25T06:59:32.312Z,76.46
2023-02-25T07:02:00.387Z,76.84
2023-02-25T07:04:28.823Z,76.64
2023-02-25T07:06:58.420Z,76.12
2023-02-25T07:09:26.666Z,76.17
2023-02-25T07:11:54.735Z,75.88
2023-02-25T07:14:22.902Z,76.10
2023-02-25T07:16:51.273Z,75.28
2023-02-25T07:19:19.368Z,75.52
2023-02-25T07:21:47.512Z,75.30
2023-02-25T07:24:17.630Z,75.49
2023-02-25T07:26:45.920Z,75.09
2023-02-25T07:29:14.173Z,74.53
2023-02-25T07:31:42.701Z,74.24
2023-02-25T07:34:11.330Z,74.21
2023-02-25T07:36:39.705Z,73.75
2023-02-25T07:39:09.818Z,73.61
2023-02-25T07:41:39.968Z,73.83
2023-02-25T07:44:09.514Z,72.83
2023-02-25T07:46:39.689Z,72.92
2023-02-25T07:49:07.911Z,72.73
2023-02-25T07:51:36.039Z,72.66
2023-02-25T07:54:04.414Z,72.19
2023-02-25T07:56:33.099Z,71.42
2023-02-25T07:59:02.552Z,70.89
2023-02-25T08:01:34.828Z,71.24
2023-02-25T08:04:05.688Z,70.88
2023-02-25T08:06:36.237Z,70.29
2023-02-25T08:09:05.861Z,69.79
2023-02-25T08:11:34.391Z,69.39
2023-02-25T08:14:05.766Z,69.30
2023-02-25T08:16:34.718Z,68.95
2023-02-25T08:19:03.949Z,68.63
2023-02-25T08:21:32.066Z,68.13
2023-02-25T08:24:00.716Z,68.47
2023-02-25T08:26:28.916Z,68.31
2023-02-25T08:28:57.730Z,68.65
2023-02-25T08:31:28.201Z,67.79
2023-02-25T08:33:58.119Z,67.61
2023-02-25T08:36:27.882Z,67.51
2023-02-25T08:38:58.453Z,66.33
2023-02-25T08:41:28.532Z,66.31
2023-02-25T08:43:58.783Z,66.03
2023-02-25T08:46:30.229Z,65.74
2023-02-25T08:48:58.426Z,66.26
2023-02-25T08:51:34.756Z,64.53
2023-02-25T08:54:04.802Z,63.88
2023-02-25T08:56:33.184Z,63.67
2023-02-25T08:59:01.323Z,62.83
2023-02-25T09:01:45.135Z,62.76
2023-02-25T09:04:14.565Z,61.38
2023-02-25T09:06:42.764Z,60.38
2023-02-25T09:09:11.697Z,60.47
2023-02-25T09:11:39.844Z,60.04
2023-02-25T09:14:07.983Z,59.80
2023-02-25T09:16:37.618Z,59.20
2023-02-25T09:19:05.799Z,58.55
2023-02-25T09:21:35.861Z,59.76
2023-02-25T09:24:03.926Z,60.95
2023-02-25T09:26:32.043Z,62.08
2023-02-25T09:29:01.667Z,62.19
2023-02-25T09:31:29.834Z,60.35
2023-02-25T09:33:59.538Z,60.13
2023-02-25T09:36:27.665Z,57.86
2023-02-25T09:38:58.485Z,58.04
2023-02-25T09:41:33.213Z,57.45
2023-02-25T09:44:08.548Z,57.25
2023-02-25T09:46:41.924Z,55.89
2023-02-25T09:49:20.156Z,55.97
2023-02-25T09:51:55.069Z,55.62
2023-02-25T09:54:30.349Z,55.52
2023-02-25T09:57:02.396Z,54.38
2023-02-25T09:59:31.311Z,54.22
2023-02-25T10:02:03.976Z,54.08
2023-02-25T10:04:41.244Z,53.62
2023-02-25T10:07:22.649Z,53.68
2023-02-25T10:09:57.742Z,54.09
2023-02-25T10:12:36.217Z,53.02
2023-02-25T10:15:25.992Z,50.83
2023-02-25T10:18:11.654Z,50.27
2023-02-25T10:20:59.218Z,50.55
2023-02-25T10:23:44.310Z,49.82
2023-02-25T10:26:19.199Z,50.22
2023-02-25T10:28:50.462Z,50.34
2023-02-25T10:31:21.167Z,49.83
2023-02-25T10:33:53.731Z,50.09
2023-02-25T10:36:29.083Z,50.75
2023-02-25T10:38:57.876Z,49.33
2023-02-25T10:41:27.160Z,49.13
2023-02-25T10:43:56.436Z,49.52
2023-02-25T10:46:31.485Z,48.82
2023-02-25T10:49:01.728Z,48.79
2023-02-25T10:51:31.328Z,49.34
2023-02-25T10:54:05.499Z,50.23
2023-02-25T10:56:41.104Z,49.22
2023-02-25T10:59:30.048Z,49.11
2023-02-25T11:02:01.526Z,49.11
2023-02-25T11:04:35.863Z,49.38
2023-02-25T11:07:25.874Z,48.95
2023-02-25T11:10:11.364Z,49.42
2023-02-25T11:12:44.474Z,49.74
2023-02-25T11:15:45.789Z,49.26
2023-02-25T11:18:21.949Z,48.69
2023-02-25T11:20:52.956Z,48.57
2023-02-25T11:23:28.494Z,47.88
2023-02-25T11:25:57.654Z,48.16
2023-02-25T11:28:31.557Z,49.02
2023-02-25T11:31:14.078Z,46.70
2023-02-25T11:33:46.127Z,46.89
2023-02-25T11:36:14.530Z,46.87
2023-02-25T11:38:44.429Z,46.91
2023-02-25T11:41:19.461Z,46.90
2023-02-25T11:43:47.773Z,46.69
2023-02-25T11:46:23.466Z,46.64
2023-02-25T11:48:54.666Z,46.02
2023-02-25T11:51:27.722Z,45.99
2023-02-25T11:54:18.793Z,45.31
2023-02-25T11:56:52.198Z,45.11
2023-02-25T11:59:31.778Z,45.51
2023-02-25T12:02:20.669Z,46.29
2023-02-25T12:05:17.966Z,47.18
2023-02-25T12:08:15.869Z,47.38
2023-02-25T12:11:24.271Z,47.64
2023-02-25T12:14:20.063Z,47.61
2023-02-25T12:17:27.057Z,47.02
2023-02-25T12:20:40.826Z,46.68
2023-02-25T12:23:50.244Z,46.55
2023-02-25T12:26:30.609Z,46.54
2023-02-25T12:29:19.286Z,46.06
2023-02-25T12:32:09.540Z,46.50
2023-02-25T12:35:17.225Z,46.97
2023-02-25T12:38:06.346Z,47.99
2023-02-25T12:40:59.373Z,47.29
2023-02-25T12:43:42.498Z,45.75
2023-02-25T12:46:33.998Z,45.28
2023-02-25T12:49:36.292Z,45.45
2023-02-25T12:52:35.438Z,47.36
2023-02-25T12:55:38.011Z,47.90
2023-02-25T12:58:34.773Z,46.80
2023-02-25T13:01:30.713Z,45.89
2023-02-25T13:04:17.829Z,45.58
2023-02-25T13:07:15.925Z,45.29
2023-02-25T13:10:00.437Z,45.04
2023-02-25T13:12:46.602Z,44.87
2023-02-25T13:15:21.734Z,45.13
2023-02-25T13:18:18.069Z,44.72
2023-02-25T13:21:00.103Z,44.84
2023-02-25T13:23:58.760Z,45.67
2023-02-25T13:26:41.948Z,45.27
2023-02-25T13:29:27.737Z,45.38
2023-02-25T13:32:11.328Z,46.11
2023-02-25T13:34:47.840Z,45.86
2023-02-25T13:37:42.446Z,46.13
2023-02-25T13:40:29.374Z,46.54
2023-02-25T13:43:14.743Z,46.22
2023-02-25T13:46:03.765Z,46.67
2023-02-25T13:48:54.083Z,46.51
2023-02-25T13:51:42.467Z,45.99
2023-02-25T13:54:33.233Z,47.19
2023-02-25T13:57:11.597Z,47.15
2023-02-25T14:00:04.086Z,47.27
2023-02-25T14:03:10.843Z,47.19
2023-02-25T14:06:04.454Z,47.73
2023-02-25T14:08:53.871Z,48.12
2023-02-25T14:11:57.792Z,48.52
2023-02-25T14:14:42.762Z,48.30
2023-02-25T14:17:24.820Z,48.50
2023-02-25T14:20:07.269Z,48.67
2023-02-25T14:22:41.825Z,48.87
2023-02-25T14:25:39.242Z,48.97
2023-02-25T14:28:16.361Z,49.42
2023-02-25T14:30:56.804Z,49.09
2023-02-25T14:33:50.825Z,48.91
2023-02-25T14:36:49.206Z,49.09
2023-02-25T14:39:29.615Z,49.07
2023-02-25T14:42:24.945Z,48.81
2023-02-25T14:44:58.566Z,48.64
2023-02-25T14:47:31.171Z,49.11
2023-02-25T14:50:05.767Z,49.08
2023-02-25T14:52:52.062Z,49.10
2023-02-25T14:55:59.219Z,48.93
2023-02-25T14:59:08.249Z,49.25
2023-02-25T15:02:04.004Z,49.62
2023-02-25T15:05:10.081Z,50.12
2023-02-25T15:08:08.150Z,50.13
2023-02-25T15:10:54.953Z,50.38
2023-02-25T15:13:56.736Z,50.97
2023-02-25T15:17:06.496Z,51.44
2023-02-25T15:19:59.194Z,51.46
2023-02-25T15:22:29.419Z,51.95
2023-02-25T15:25:37.388Z,52.52
2023-02-25T15:28:25.951Z,52.92
2023-02-25T15:31:39.117Z,52.95
2023-02-25T15:34:42.942Z,53.02
2023-02-25T15:37:31.031Z,53.17
2023-02-25T15:40:01.346Z,52.48
2023-02-25T15:42:51.556Z,52.30
2023-02-25T15:45:36.908Z,52.18
2023-02-25T15:48:42.317Z,51.60
2023-02-25T15:51:14.648Z,51.75
2023-02-25T15:53:49.150Z,51.60
2023-02-25T15:56:58.143Z,51.99
2023-02-25T15:59:55.636Z,52.19
2023-02-25T16:02:42.117Z,52.56
2023-02-25T16:05:29.266Z,53.03
2023-02-25T16:08:13.326Z,53.40
2023-02-25T16:10:46.430Z,53.42
2023-02-25T16:13:17.492Z,53.75
2023-02-25T16:15:50.688Z,53.95
2023-02-25T16:18:25.885Z,53.99
2023-02-25T16:20:59.869Z,54.28
2023-02-25T16:23:29.274Z,54.03
2023-02-25T16:26:09.785Z,54.13
2023-02-25T16:28:48.312Z,54.50
2023-02-25T16:31:23.200Z,54.65
2023-02-25T16:33:54.328Z,54.79
2023-02-25T16:36:34.208Z,54.66
2023-02-25T16:39:05.937Z,54.68
2023-02-25T16:41:38.976Z,54.63
2023-02-25T16:44:08.234Z,54.67
2023-02-25T16:46:41.606Z,54.51
2023-02-25T16:49:12.807Z,54.44
2023-02-25T16:51:42.526Z,54.60
2023-02-25T16:54:17.801Z,54.74
2023-02-25T16:56:51.736Z,54.16
2023-02-25T16:59:22.422Z,54.26
2023-02-25T17:01:57.083Z,54.13
2023-02-25T17:04:29.149Z,54.30
2023-02-25T17:07:13.509Z,54.39
2023-02-25T17:09:47.473Z,54.25
2023-02-25T17:12:21.190Z,54.32
2023-02-25T17:14:51.466Z,54.71
2023-02-25T17:17:25.418Z,55.29
2023-02-25T17:19:53.880Z,55.08
2023-02-25T17:22:24.732Z,54.97
2023-02-25T17:24:55.068Z,55.31
2023-02-25T17:27:26.087Z,55.90
2023-02-25T17:29:54.232Z,56.19
2023-02-25T17:32:25.027Z,56.59
2023-02-25T17:34:56.002Z,56.50
2023-02-25T17:37:26.239Z,56.19
2023-02-25T17:39:55.102Z,56.13
2023-02-25T17:42:36.211Z,56.48
2023-02-25T17:45:07.328Z,56.47
2023-02-25T17:47:38.164Z,55.74
2023-02-25T17:50:23.127Z,55.62
2023-02-25T17:52:51.756Z,55.99
2023-02-25T17:55:26.444Z,55.98
2023-02-25T17:57:59.879Z,55.82
2023-02-25T18:00:31.953Z,55.53
2023-02-25T18:03:17.865Z,55.49
2023-02-25T18:05:52.576Z,55.54
2023-02-25T18:08:24.761Z,55.43
2023-02-25T18:10:58.795Z,55.67
2023-02-25T18:13:35.299Z,55.97
2023-02-25T18:16:27.551Z,56.24
2023-02-25T18:18:57.242Z,56.04
2023-02-25T18:21:25.514Z,56.38
2023-02-25T18:23:54.209Z,56.70
2023-02-25T18:26:25.272Z,56.90
2023-02-25T18:28:57.639Z,57.01
2023-02-25T18:31:26.224Z,57.04
2023-02-25T18:33:55.142Z,57.26
2023-02-25T18:36:26.867Z,57.18
2023-02-25T18:38:56.786Z,57.33
2023-02-25T18:41:24.959Z,57.13
2023-02-25T18:43:54.821Z,57.48
2023-02-25T18:46:23.711Z,57.36
2023-02-25T18:48:52.089Z,57.44
2023-02-25T18:51:20.190Z,57.61
2023-02-25T18:53:48.314Z,57.72
2023-02-25T18:56:18.416Z,57.94
2023-02-25T18:58:46.639Z,58.22
2023-02-25T19:01:23.631Z,58.62
2023-02-25T19:03:52.436Z,58.95
2023-02-25T19:06:21.112Z,59.04
2023-02-25T19:08:49.374Z,59.35
2023-02-25T19:11:21.781Z,59.75
2023-02-25T19:13:49.914Z,60.19
2023-02-25T19:16:20.128Z,60.57
2023-02-25T19:18:48.531Z,61.00
2023-02-25T19:21:19.211Z,60.91
2023-02-25T19:23:49.054Z,61.24
2023-02-25T19:26:18.442Z,61.33
2023-02-25T19:28:46.606Z,61.43
2023-02-25T19:31:14.817Z,61.73
2023-02-25T19:33:44.449Z,61.66
2023-02-25T19:36:13.062Z,61.80
2023-02-25T19:38:41.292Z,61.77
2023-02-25T19:41:11.560Z,61.98
2023-02-25T19:43:39.769Z,62.24
2023-02-25T19:46:09.428Z,62.55
2023-02-25T19:48:38.020Z,62.41
2023-02-25T19:51:11.561Z,62.83
2023-02-25T19:53:39.760Z,63.01
2023-02-25T19:56:08.513Z,63.28
2023-02-25T19:58:36.572Z,63.53
2023-02-25T20:01:06.826Z,63.99
2023-02-25T20:03:35.284Z,64.14
2023-02-25T20:06:08.216Z,64.21
2023-02-25T20:08:39.593Z,64.42
2023-02-25T20:11:09.899Z,64.43
2023-02-25T20:13:38.668Z,64.49
2023-02-25T20:16:09.264Z,64.58
2023-02-25T20:18:37.594Z,64.75
2023-02-25T20:21:06.242Z,64.79
2023-02-25T20:23:34.406Z,65.23
2023-02-25T20:26:09.278Z,65.55
2023-02-25T20:28:37.788Z,65.86
2023-02-25T20:31:08.115Z,66.12
2023-02-25T20:33:36.882Z,66.35
2023-02-25T20:36:18.331Z,66.67
2023-02-25T20:38:58.575Z,66.82
2023-02-25T20:41:28.427Z,66.80
2023-02-25T20:43:57.341Z,67.30
2023-02-25T20:46:27.943Z,67.36
2023-02-25T20:48:56.900Z,67.30
2023-02-25T20:51:25.649Z,67.50
2023-02-25T20:53:54.490Z,67.64
2023-02-25T20:56:24.901Z,68.10
2023-02-25T20:58:55.481Z,68.28
2023-02-25T21:01:23.684Z,68.67
2023-02-25T21:03:51.838Z,69.33
2023-02-25T21:06:22.810Z,69.57
2023-02-25T21:08:51.829Z,69.86
2023-02-25T21:11:20.161Z,70.03
2023-02-25T21:13:48.274Z,70.14
2023-02-25T21:16:17.891Z,70.39
2023-02-25T21:18:47.599Z,70.58
2023-02-25T21:21:20.340Z,70.85
2023-02-25T21:23:49.288Z,70.76
2023-02-25T21:26:17.421Z,70.82
2023-02-25T21:28:46.698Z,71.00
2023-02-25T21:31:17.382Z,71.14
2023-02-25T21:33:45.664Z,70.92
2023-02-25T21:36:13.853Z,71.16
2023-02-25T21:38:41.962Z,71.35
2023-02-25T21:41:12.834Z,71.26
2023-02-25T21:43:42.034Z,71.48
2023-02-25T21:46:12.683Z,71.36
2023-02-25T21:48:42.862Z,71.44
2023-02-25T21:51:17.170Z,71.33
2023-02-25T21:53:45.362Z,71.01
2023-02-25T21:56:15.847Z,71.05
2023-02-25T21:58:44.952Z,71.20
2023-02-25T22:01:17.874Z,71.18
2023-02-25T22:03:47.992Z,71.33
2023-02-25T22:06:17.045Z,71.71
2023-02-25T22:08:46.171Z,71.85
2023-02-25T22:11:14.944Z,71.68
2023-02-25T22:13:43.227Z,71.63
2023-02-25T22:16:12.826Z,71.62
2023-02-25T22:18:41.184Z,71.88
2023-02-25T22:21:13.555Z,71.92
2023-02-25T22:23:43.502Z,72.10
2023-02-25T22:26:13.964Z,71.86
2023-02-25T22:28:43.016Z,72.30
2023-02-25T22:31:12.320Z,72.44
2023-02-25T22:33:40.771Z,72.59
2023-02-25T22:36:12.067Z,72.59
2023-02-25T22:38:42.594Z,73.14
2023-02-25T22:41:13.843Z,72.95
2023-02-25T22:43:42.241Z,72.79
2023-02-25T22:46:12.453Z,72.94
2023-02-25T22:48:42.519Z,72.92
2023-02-25T22:51:12.970Z,73.02
2023-02-25T22:53:41.954Z,72.53
2023-02-25T22:56:11.871Z,72.66
2023-02-25T22:58:41.047Z,72.71
2023-02-25T23:01:09.623Z,72.83
2023-02-25T23:03:38.551Z,72.53
2023-02-25T23:06:07.792Z,72.52
2023-02-25T23:08:38.500Z,72.51
2023-02-25T23:11:11.699Z,72.46
2023-02-25T23:13:46.231Z,72.50
2023-02-25T23:16:15.142Z,73.07
2023-02-25T23:18:43.695Z,72.98
2023-02-25T23:21:16.438Z,72.96
2023-02-25T23:23:47.366Z,72.86
2023-02-25T23:26:17.436Z,73.42
2023-02-25T23:28:45.711Z,73.52
2023-02-25T23:31:19.970Z,73.49
2023-02-25T23:33:48.400Z,73.46
2023-02-25T23:36:17.219Z,73.82
2023-02-25T23:38:46.728Z,73.69
2023-02-25T23:41:14.913Z,74.09
2023-02-25T23:43:43.027Z,73.92
2023-02-25T23:46:11.337Z,74.05
2023-02-25T23:48:39.588Z,73.97
2023-02-25T23:51:08.867Z,74.19
2023-02-25T23:53:37.466Z,74.12
2023-02-25T23:56:09.815Z,74.60
2023-02-25T23:58:38.840Z,74.94
